createdAt,value
2018-04-19T00:07:03.440Z,9.80
2018-04-19T00:09:31.018Z,9.70
2018-04-19T00:11:59.370Z,9.70
2018-04-19T00:14:26.978Z,9.60
2018-04-19T00:16:54.566Z,9.60
2018-04-19T00:19:22.923Z,9.60
2018-04-19T00:21:50.846Z,9.50
2018-04-19T00:24:18.417Z,9.60
2018-04-19T00:26:46.758Z,9.50
2018-04-19T00:29:14.365Z,9.50
2018-04-19T00:31:41.961Z,9.50
2018-04-19T00:34:09.552Z,9.50
2018-04-19T00:36:37.160Z,9.50
2018-04-19T00:39:07.638Z,9.50
2018-04-19T00:41:35.985Z,9.40
2018-04-19T00:44:03.590Z,9.40
2018-04-19T00:46:31.935Z,9.40
2018-04-19T00:48:59.510Z,9.30
2018-04-19T00:51:27.115Z,9.40
2018-04-19T00:53:54.693Z,9.30
2018-04-19T00:56:22.281Z,9.30
2018-04-19T00:58:50.663Z,9.20
2018-04-19T01:01:18.238Z,9.20
2018-04-19T01:03:45.826Z,9.20
2018-04-19T01:06:14.204Z,9.20
2018-04-19T01:08:42.555Z,9.20
2018-04-19T01:11:10.130Z,9.20
2018-04-19T01:13:37.739Z,9.20
2018-04-19T01:16:05.338Z,9.20
2018-04-19T01:18:32.922Z,9.20
2018-04-19T01:21:00.521Z,9.20
2018-04-19T01:23:28.099Z,9.10
2018-04-19T01:25:55.677Z,9.00
2018-04-19T01:28:23.277Z,9.00
2018-04-19T01:30:50.849Z,9.00
2018-04-19T01:33:19.190Z,9.00
2018-04-19T01:35:58.709Z,8.90
2018-04-19T01:38:27.051Z,8.90
2018-04-19T01:40:54.719Z,8.80
2018-04-19T01:43:22.350Z,8.90
2018-04-19T01:45:50.695Z,8.80
2018-04-19T01:48:18.277Z,8.80
2018-04-19T01:50:45.877Z,8.90
2018-04-19T01:53:14.215Z,8.80
2018-04-19T01:55:41.899Z,8.80
2018-04-19T01:58:09.506Z,8.80
2018-04-19T02:00:37.143Z,8.80
2018-04-19T02:03:04.722Z,8.70
2018-04-19T02:05:32.646Z,8.80
2018-04-19T02:08:00.990Z,8.70
2018-04-19T02:10:28.566Z,8.60
2018-04-19T02:12:56.170Z,8.60
2018-04-19T02:15:23.751Z,8.60
2018-04-19T02:17:52.085Z,8.50
2018-04-19T02:20:19.690Z,8.50
2018-04-19T02:22:47.269Z,8.50
2018-04-19T02:25:14.855Z,8.50
2018-04-19T02:27:42.468Z,8.50
2018-04-19T02:30:10.055Z,8.50
2018-04-19T02:32:37.635Z,8.50
2018-04-19T02:35:05.243Z,8.40
2018-04-19T02:37:32.822Z,8.40
2018-04-19T02:40:00.399Z,8.40
2018-04-19T02:42:28.780Z,8.40
2018-04-19T02:44:56.349Z,8.30
2018-04-19T02:47:23.922Z,8.30
2018-04-19T02:49:51.542Z,8.30
2018-04-19T02:52:19.105Z,8.30
2018-04-19T02:54:46.675Z,8.30
2018-04-19T02:57:14.286Z,8.30
2018-04-19T02:59:41.882Z,8.30
2018-04-19T03:02:09.467Z,8.20
2018-04-19T03:04:37.081Z,8.30
2018-04-19T03:07:04.654Z,8.20
2018-04-19T03:09:32.235Z,8.30
2018-04-19T03:11:59.848Z,8.20
2018-04-19T03:14:27.434Z,8.20
2018-04-19T03:16:55.014Z,8.20
2018-04-19T03:19:23.384Z,8.10
2018-04-19T03:21:50.955Z,8.10
2018-04-19T03:24:18.540Z,8.10
2018-04-19T03:26:46.147Z,8.10
2018-04-19T03:29:13.730Z,8.10
2018-04-19T03:31:41.314Z,8.00
2018-04-19T03:34:08.910Z,8.00
2018-04-19T03:36:36.494Z,8.00
2018-04-19T03:39:04.163Z,7.90
2018-04-19T03:41:31.817Z,7.90
2018-04-19T03:43:59.406Z,7.90
2018-04-19T03:46:26.981Z,7.90
2018-04-19T03:48:54.601Z,7.90
2018-04-19T03:51:22.191Z,7.90
2018-04-19T03:53:50.559Z,7.90
2018-04-19T03:56:18.143Z,7.80
2018-04-19T03:58:45.718Z,7.80
2018-04-19T04:01:13.310Z,7.80
2018-04-19T04:03:40.926Z,7.80
2018-04-19T04:06:08.513Z,7.80
2018-04-19T04:08:36.863Z,7.80
2018-04-19T04:11:04.822Z,7.70
2018-04-19T04:13:32.398Z,7.80
2018-04-19T04:15:59.965Z,7.70
2018-04-19T04:18:39.325Z,7.70
2018-04-19T04:21:17.839Z,7.80
2018-04-19T04:23:53.985Z,7.80
2018-04-19T04:26:21.830Z,7.80
2018-04-19T04:28:49.615Z,7.80
2018-04-19T04:31:17.288Z,7.80
2018-04-19T04:33:44.835Z,7.90
2018-04-19T04:36:12.440Z,8.00
2018-04-19T04:38:40.046Z,8.00
2018-04-19T04:41:07.634Z,8.00
2018-04-19T04:43:35.206Z,8.00
2018-04-19T04:46:02.815Z,8.10
2018-04-19T04:48:30.392Z,8.20
2018-04-19T04:50:57.980Z,8.30
2018-04-19T04:53:25.599Z,8.40
2018-04-19T04:55:55.351Z,8.40
2018-04-19T04:58:22.966Z,8.40
2018-04-19T05:00:50.574Z,8.50
2018-04-19T05:03:18.150Z,8.60
2018-04-19T05:05:45.740Z,8.60
2018-04-19T05:08:13.359Z,8.70
2018-04-19T05:10:40.929Z,8.70
2018-04-19T05:13:08.506Z,8.90
2018-04-19T05:15:36.119Z,9.00
2018-04-19T05:18:03.771Z,9.10
2018-04-19T05:20:32.115Z,9.30
2018-04-19T05:22:59.727Z,9.30
2018-04-19T05:25:28.074Z,9.50
2018-04-19T05:27:55.672Z,9.50
2018-04-19T05:30:23.284Z,9.60
2018-04-19T05:32:51.630Z,9.90
2018-04-19T05:35:19.209Z,9.80
2018-04-19T05:37:46.826Z,10.10
2018-04-19T05:40:14.402Z,10.20
2018-04-19T05:42:41.986Z,10.40
2018-04-19T05:45:09.610Z,10.50
2018-04-19T05:47:37.194Z,10.60
2018-04-19T05:50:05.537Z,10.90
2018-04-19T05:52:33.151Z,10.90
2018-04-19T05:55:00.735Z,11.10
2018-04-19T05:57:29.082Z,11.50
2018-04-19T05:59:56.688Z,11.50
2018-04-19T06:02:24.269Z,11.70
2018-04-19T06:04:52.622Z,12.20
2018-04-19T06:07:20.230Z,12.10
2018-04-19T06:09:48.573Z,12.40
2018-04-19T06:12:16.153Z,12.40
2018-04-19T06:14:43.770Z,12.70
2018-04-19T06:17:12.123Z,13.00
2018-04-19T06:19:39.715Z,13.00
2018-04-19T06:22:07.330Z,13.20
2018-04-19T06:24:34.947Z,13.50
2018-04-19T06:27:02.525Z,13.70
2018-04-19T06:29:30.188Z,13.90
2018-04-19T06:31:57.798Z,14.20
2018-04-19T06:34:26.155Z,14.80
2018-04-19T06:36:53.758Z,14.70
2018-04-19T06:39:21.305Z,15.20
2018-04-19T06:41:48.882Z,15.30
2018-04-19T06:44:16.438Z,15.70
2018-04-19T06:46:44.037Z,16.00
2018-04-19T06:49:11.692Z,16.50
2018-04-19T06:51:39.241Z,17.40
2018-04-19T06:54:07.585Z,19.40
2018-04-19T06:56:35.157Z,19.30
2018-04-19T06:59:02.739Z,19.80
2018-04-19T07:01:30.299Z,20.00
2018-04-19T07:03:57.874Z,20.20
2018-04-19T07:06:25.460Z,20.70
2018-04-19T07:08:53.038Z,21.40
2018-04-19T07:11:20.601Z,21.50
2018-04-19T07:13:48.162Z,21.70
2018-04-19T07:16:15.749Z,21.60
2018-04-19T07:18:43.308Z,21.80
2018-04-19T07:21:10.873Z,22.10
2018-04-19T07:23:38.425Z,22.80
2018-04-19T07:26:06.053Z,22.90
2018-04-19T07:28:33.578Z,23.50
2018-04-19T07:31:01.146Z,23.80
2018-04-19T07:33:28.706Z,23.80
2018-04-19T07:35:56.255Z,24.70
2018-04-19T07:38:24.591Z,25.30
2018-04-19T07:40:52.148Z,25.20
2018-04-19T07:43:19.722Z,25.60
2018-04-19T07:45:47.275Z,24.60
2018-04-19T07:48:15.619Z,25.40
2018-04-19T07:50:43.176Z,25.30
2018-04-19T07:53:10.747Z,24.90
2018-04-19T07:55:38.298Z,25.50
2018-04-19T07:58:05.893Z,25.30
2018-04-19T08:00:33.450Z,26.10
2018-04-19T08:03:01.004Z,26.30
2018-04-19T08:05:28.604Z,26.50
2018-04-19T08:07:56.171Z,25.70
2018-04-19T08:10:23.750Z,25.70
2018-04-19T08:12:51.317Z,26.00
2018-04-19T08:15:18.881Z,26.00
2018-04-19T08:17:46.430Z,27.00
2018-04-19T08:20:14.772Z,27.10
2018-04-19T08:22:42.341Z,27.00
2018-04-19T08:25:09.887Z,27.10
2018-04-19T08:27:37.467Z,27.10
2018-04-19T08:30:05.021Z,27.40
2018-04-19T08:32:33.359Z,27.40
2018-04-19T08:35:00.921Z,27.40
2018-04-19T08:37:28.496Z,27.80
2018-04-19T08:39:56.055Z,27.50
2018-04-19T08:42:23.631Z,27.30
2018-04-19T08:44:51.184Z,27.50
2018-04-19T08:47:18.749Z,27.50
2018-04-19T08:49:46.335Z,27.80
2018-04-19T08:52:13.890Z,28.10
2018-04-19T08:54:41.471Z,28.10
2018-04-19T08:57:09.018Z,28.30
2018-04-19T08:59:37.358Z,28.30
2018-04-19T09:02:04.911Z,28.30
2018-04-19T09:04:32.487Z,28.40
2018-04-19T09:07:00.041Z,28.10
2018-04-19T09:09:28.395Z,29.10
2018-04-19T09:11:55.952Z,29.10
2018-04-19T09:14:23.507Z,29.10
2018-04-19T09:16:51.083Z,28.90
2018-04-19T09:19:18.642Z,28.70
2018-04-19T09:21:46.221Z,28.60
2018-04-19T09:24:13.770Z,28.60
2018-04-19T09:26:41.552Z,28.40
2018-04-19T09:29:09.100Z,28.60
2018-04-19T09:31:37.034Z,28.90
2018-04-19T09:34:04.599Z,28.70
2018-04-19T09:36:32.145Z,28.90
2018-04-19T09:39:00.479Z,28.40
2018-04-19T09:41:28.029Z,28.30
2018-04-19T09:43:55.603Z,28.50
2018-04-19T09:46:23.164Z,28.70
2018-04-19T09:48:50.793Z,29.00
2018-04-19T09:51:23.163Z,29.00
2018-04-19T09:53:50.791Z,28.60
2018-04-19T09:56:18.318Z,29.00
2018-04-19T10:01:45.762Z,28.70
2018-04-19T10:04:14.201Z,28.20
2018-04-19T10:06:42.472Z,28.50
2018-04-19T10:09:10.018Z,28.50
2018-04-19T10:11:38.346Z,28.70
2018-04-19T10:14:05.916Z,28.70
2018-04-19T10:16:33.493Z,28.50
2018-04-19T10:19:01.043Z,28.10
2018-04-19T10:21:28.695Z,28.10
2018-04-19T10:23:56.198Z,28.50
2018-04-19T10:26:23.763Z,29.10
2018-04-19T10:28:51.319Z,28.80
2018-04-19T10:31:18.911Z,28.90
2018-04-19T10:33:46.522Z,28.80
2018-04-19T10:36:14.051Z,28.90
2018-04-19T10:38:41.629Z,29.40
2018-04-19T10:41:09.193Z,29.10
2018-04-19T10:43:36.772Z,29.10
2018-04-19T10:46:04.321Z,28.90
2018-04-19T10:48:32.669Z,28.40
2018-04-19T10:51:00.224Z,28.30
2018-04-19T10:53:27.800Z,28.80
2018-04-19T10:55:55.366Z,28.60
2018-04-19T10:58:22.930Z,29.00
2018-04-19T11:00:50.502Z,29.00
2018-04-19T11:03:18.060Z,29.20
2018-04-19T11:05:45.635Z,29.20
2018-04-19T11:08:13.183Z,29.50
2018-04-19T11:10:41.525Z,29.10
2018-04-19T11:13:09.089Z,29.10
2018-04-19T11:15:36.657Z,29.80
2018-04-19T11:18:04.205Z,30.20
2018-04-19T11:20:31.778Z,30.00
2018-04-19T11:22:59.350Z,29.40
2018-04-19T11:25:26.918Z,28.70
2018-04-19T11:27:54.508Z,28.40
2018-04-19T11:30:22.045Z,28.20
2018-04-19T11:32:49.613Z,27.40
2018-04-19T11:35:17.167Z,27.00
2018-04-19T11:37:44.755Z,27.00
2018-04-19T11:40:12.312Z,27.00
2018-04-19T11:42:39.902Z,27.00
2018-04-19T11:45:07.450Z,27.00
2018-04-19T11:47:35.007Z,26.80
2018-04-19T11:50:02.584Z,26.80
2018-04-19T11:52:30.147Z,26.60
2018-04-19T11:54:57.722Z,26.20
2018-04-19T11:57:25.280Z,26.50
2018-04-19T11:59:52.856Z,26.70
2018-04-19T12:02:20.402Z,26.90
2018-04-19T12:04:48.755Z,26.50
2018-04-19T12:07:16.310Z,26.40
2018-04-19T12:09:43.858Z,26.30
2018-04-19T12:12:11.442Z,26.30
2018-04-19T12:14:38.999Z,26.20
2018-04-19T12:17:06.563Z,26.50
2018-04-19T12:19:34.874Z,26.50
2018-04-19T12:22:02.454Z,26.50
2018-04-19T12:24:30.040Z,26.40
2018-04-19T12:26:57.615Z,26.50
2018-04-19T12:29:25.182Z,26.50
2018-04-19T12:31:52.742Z,26.60
2018-04-19T12:34:20.323Z,26.50
2018-04-19T12:36:47.870Z,26.70
2018-04-19T12:39:15.429Z,27.10
2018-04-19T12:41:43.741Z,27.70
2018-04-19T12:44:11.390Z,27.60
2018-04-19T12:46:39.717Z,27.10
2018-04-19T12:49:07.287Z,27.10
2018-04-19T12:51:34.838Z,26.80
2018-04-19T12:54:02.389Z,26.50
2018-04-19T12:56:30.754Z,26.10
2018-04-19T12:58:58.326Z,25.90
2018-04-19T13:01:25.907Z,25.90
2018-04-19T13:03:53.472Z,25.80
2018-04-19T13:06:21.050Z,25.50
2018-04-19T13:08:48.606Z,25.10
2018-04-19T13:11:16.178Z,24.80
2018-04-19T13:13:43.729Z,25.10
2018-04-19T13:16:11.303Z,25.30
2018-04-19T13:18:38.855Z,25.60
2018-04-19T13:21:06.412Z,25.80
2018-04-19T13:23:34.749Z,26.10
2018-04-19T13:26:02.305Z,26.00
2018-04-19T13:28:29.871Z,26.20
2018-04-19T13:30:57.417Z,26.30
2018-04-19T13:33:25.789Z,26.80
2018-04-19T13:35:53.344Z,26.80
2018-04-19T13:38:20.931Z,27.70
2018-04-19T13:40:48.487Z,28.40
2018-04-19T13:43:16.029Z,28.90
2018-04-19T13:45:43.611Z,29.40
2018-04-19T13:48:11.175Z,28.30
2018-04-19T13:50:38.751Z,28.40
2018-04-19T13:53:06.304Z,28.80
2018-04-19T13:55:33.871Z,29.50
2018-04-19T13:58:02.199Z,29.30
2018-04-19T14:00:29.809Z,29.20
2018-04-19T14:02:57.351Z,29.50
2018-04-19T14:05:24.916Z,30.00
2018-04-19T14:07:52.492Z,30.00
2018-04-19T14:10:20.045Z,29.70
2018-04-19T14:12:47.611Z,29.40
2018-04-19T14:15:15.166Z,29.00
2018-04-19T14:17:43.503Z,27.80
2018-04-19T14:20:11.067Z,27.70
2018-04-19T14:22:38.656Z,27.10
2018-04-19T14:25:06.288Z,26.40
2018-04-19T14:27:33.806Z,26.30
2018-04-19T14:30:01.367Z,26.10
2018-04-19T14:32:28.928Z,25.90
2018-04-19T14:34:56.494Z,25.40
2018-04-19T14:37:24.058Z,25.20
2018-04-19T14:39:51.627Z,25.00
2018-04-19T14:42:19.182Z,25.00
2018-04-19T14:44:47.513Z,24.90
2018-04-19T14:47:15.063Z,24.80
2018-04-19T14:49:42.646Z,24.90
2018-04-19T14:52:10.204Z,24.80
2018-04-19T14:54:37.758Z,24.70
2018-04-19T14:57:06.098Z,24.40
2018-04-19T14:59:33.662Z,24.40
2018-04-19T15:02:01.223Z,24.40
2018-04-19T15:04:28.785Z,24.20
2018-04-19T15:06:56.361Z,23.90
2018-04-19T15:09:23.951Z,23.90
2018-04-19T15:11:51.831Z,23.90
2018-04-19T15:14:19.370Z,23.80
2018-04-19T15:16:47.696Z,23.80
2018-04-19T15:19:15.270Z,23.80
2018-04-19T15:21:43.056Z,23.80
2018-04-19T15:24:10.693Z,23.70
2018-04-19T15:26:38.250Z,23.70
2018-04-19T15:29:06.592Z,23.70
2018-04-19T15:31:34.721Z,23.70
2018-04-19T15:34:03.055Z,23.60
2018-04-19T15:36:30.601Z,23.50
2018-04-19T15:38:58.196Z,23.60
2018-04-19T15:41:25.771Z,23.60
2018-04-19T15:43:53.337Z,23.50
2018-04-19T15:46:20.911Z,23.30
2018-04-19T15:48:48.470Z,23.30
2018-04-19T15:51:16.033Z,23.40
2018-04-19T15:53:44.354Z,23.30
2018-04-19T15:56:11.938Z,23.30
2018-04-19T15:58:39.494Z,23.30
2018-04-19T16:01:07.072Z,23.30
2018-04-19T16:03:34.628Z,23.30
2018-04-19T16:06:02.194Z,23.20
2018-04-19T16:08:29.742Z,23.20
2018-04-19T16:10:57.319Z,23.10
2018-04-19T16:13:25.637Z,23.10
2018-04-19T16:15:53.191Z,23.00
2018-04-19T16:18:21.587Z,23.00
2018-04-19T16:20:51.097Z,23.00
2018-04-19T16:23:21.387Z,23.00
2018-04-19T16:25:50.365Z,23.00
2018-04-19T16:28:18.343Z,22.90
2018-04-19T16:30:46.382Z,22.90
2018-04-19T16:33:14.189Z,22.90
2018-04-19T16:35:41.984Z,22.80
2018-04-19T16:38:09.600Z,22.70
2018-04-19T16:40:37.159Z,22.70
2018-04-19T16:43:04.734Z,22.60
2018-04-19T16:45:32.320Z,22.60
2018-04-19T16:47:59.873Z,22.50
2018-04-19T16:50:27.466Z,22.50
2018-04-19T16:52:55.018Z,22.50
2018-04-19T16:55:22.591Z,22.50
2018-04-19T16:57:50.144Z,22.50
2018-04-19T17:00:17.726Z,22.40
2018-04-19T17:02:45.269Z,22.40
2018-04-19T17:05:13.627Z,22.30
2018-04-19T17:07:41.234Z,22.30
2018-04-19T17:10:08.783Z,22.30
2018-04-19T17:12:36.362Z,22.30
2018-04-19T17:15:04.665Z,22.20
2018-04-19T17:17:32.994Z,22.20
2018-04-19T17:20:00.764Z,22.10
2018-04-19T17:22:28.873Z,22.20
2018-04-19T17:24:56.471Z,22.00
2018-04-19T17:27:24.037Z,22.00
2018-04-19T17:29:51.583Z,22.00
2018-04-19T17:32:19.150Z,21.90
2018-04-19T17:34:46.714Z,21.80
2018-04-19T17:37:14.261Z,21.80
2018-04-19T17:39:41.834Z,21.70
2018-04-19T17:42:09.386Z,21.60
2018-04-19T17:44:37.740Z,21.50
2018-04-19T17:47:05.295Z,21.40
2018-04-19T17:49:32.879Z,21.40
2018-04-19T17:52:00.438Z,21.30
2018-04-19T17:54:27.996Z,21.10
2018-04-19T17:56:55.592Z,21.00
2018-04-19T17:59:23.158Z,20.80
2018-04-19T18:01:50.744Z,20.70
2018-04-19T18:04:18.294Z,20.50
2018-04-19T18:06:45.875Z,20.30
2018-04-19T18:09:13.447Z,20.20
2018-04-19T18:11:40.999Z,20.00
2018-04-19T18:14:08.601Z,20.00
2018-04-19T18:16:36.160Z,19.90
2018-04-19T18:19:03.734Z,19.70
2018-04-19T18:21:31.299Z,19.60
2018-04-19T18:23:58.882Z,19.50
2018-04-19T18:26:26.480Z,19.40
2018-04-19T18:28:54.315Z,19.30
2018-04-19T18:31:21.915Z,19.10
2018-04-19T18:33:49.488Z,19.00
2018-04-19T18:36:17.062Z,18.90
2018-04-19T18:38:44.631Z,18.80
2018-04-19T18:41:12.241Z,18.70
2018-04-19T18:43:40.580Z,18.50
2018-04-19T18:46:08.768Z,18.40
2018-04-19T18:48:36.323Z,18.30
2018-04-19T18:51:03.907Z,18.30
2018-04-19T18:53:31.522Z,18.20
2018-04-19T18:55:59.080Z,18.10
2018-04-19T18:58:26.684Z,18.00
2018-04-19T19:00:54.498Z,17.90
2018-04-19T19:03:22.095Z,17.80
2018-04-19T19:05:49.662Z,17.80
2018-04-19T19:08:18.339Z,17.70
2018-04-19T19:10:46.552Z,17.70
2018-04-19T19:13:14.235Z,17.60
2018-04-19T19:18:58.713Z,17.40
2018-04-19T19:21:29.109Z,17.30
2018-04-19T19:23:56.723Z,17.30
2018-04-19T19:26:25.048Z,17.10
2018-04-19T19:28:52.754Z,17.10
2018-04-19T19:31:20.319Z,17.00
2018-04-19T19:33:47.897Z,16.90
2018-04-19T19:36:16.252Z,16.80
2018-04-19T19:38:43.824Z,16.80
2018-04-19T19:41:11.574Z,16.70
2018-04-19T19:43:39.195Z,16.70
2018-04-19T19:46:07.418Z,16.60
2018-04-19T19:48:35.107Z,16.50
2018-04-19T19:51:02.703Z,16.40
2018-04-19T19:53:30.292Z,16.30
2018-04-19T19:55:57.883Z,16.30
2018-04-19T19:58:25.445Z,16.20
2018-04-19T20:00:53.013Z,16.10
2018-04-19T20:03:20.661Z,16.10
2018-04-19T20:05:48.270Z,16.10
2018-04-19T20:08:15.866Z,16.10
2018-04-19T20:10:45.896Z,16.00
2018-04-19T20:13:13.636Z,16.00
2018-04-19T20:15:41.232Z,15.90
2018-04-19T20:18:08.819Z,15.90
2018-04-19T20:20:37.146Z,15.90
2018-04-19T20:23:04.759Z,15.80
2018-04-19T20:25:33.131Z,15.80
2018-04-19T20:28:05.634Z,15.70
2018-04-19T20:30:34.007Z,15.70
2018-04-19T20:33:01.586Z,15.60
2018-04-19T20:35:29.166Z,15.60
2018-04-19T20:37:56.798Z,15.50
2018-04-19T20:40:24.488Z,15.50
2018-04-19T20:42:52.088Z,15.50
2018-04-19T20:45:23.057Z,15.50
2018-04-19T20:47:54.184Z,15.40
2018-04-19T20:50:22.087Z,15.40
2018-04-19T20:52:50.633Z,15.50
2018-04-19T20:55:19.083Z,15.30
2018-04-19T20:57:47.452Z,15.20
2018-04-19T21:00:15.252Z,15.20
2018-04-19T21:02:42.849Z,15.20
2018-04-19T21:05:10.442Z,15.10
2018-04-19T21:07:38.084Z,15.10
2018-04-19T21:10:06.447Z,15.10
2018-04-19T21:12:34.046Z,15.00
2018-04-19T21:15:01.637Z,15.00
2018-04-19T21:17:29.258Z,15.00
2018-04-19T21:19:56.847Z,14.90
2018-04-19T21:22:24.474Z,14.80
2018-04-19T21:24:52.049Z,14.80
2018-04-19T21:27:19.653Z,14.70
2018-04-19T21:29:47.271Z,14.70
2018-04-19T21:32:14.878Z,14.70
2018-04-19T21:34:43.321Z,14.60
2018-04-19T21:37:11.703Z,14.60
2018-04-19T21:39:40.087Z,14.60
2018-04-19T21:42:07.692Z,14.50
2018-04-19T21:44:35.322Z,14.50
2018-04-19T21:47:02.929Z,14.50
2018-04-19T21:49:30.523Z,14.50
2018-04-19T21:51:58.147Z,14.40
2018-04-19T21:54:25.750Z,14.40
2018-04-19T21:56:54.136Z,14.30
2018-04-19T21:59:22.490Z,14.30
2018-04-19T22:01:50.281Z,14.20
2018-04-19T22:04:18.666Z,14.10
2018-04-19T22:06:46.286Z,14.10
2018-04-19T22:09:13.889Z,14.10
2018-04-19T22:11:41.522Z,14.00
2018-04-19T22:14:09.883Z,13.90
2018-04-19T22:16:37.564Z,13.80
2018-04-19T22:19:05.179Z,13.80
2018-04-19T22:21:32.762Z,13.80
2018-04-19T22:24:00.374Z,13.70
2018-04-19T22:26:27.990Z,13.70
2018-04-19T22:28:55.607Z,13.60
2018-04-19T22:31:23.195Z,13.70
2018-04-19T22:33:50.807Z,13.60
2018-04-19T22:36:19.162Z,13.50
2018-04-19T22:38:46.747Z,13.50
2018-04-19T22:41:14.359Z,13.50
2018-04-19T22:43:41.956Z,13.40
2018-04-19T22:46:09.579Z,13.30
2018-04-19T22:48:37.939Z,13.30
2018-04-19T22:51:05.556Z,13.20
2018-04-19T22:53:33.157Z,13.30
2018-04-19T22:56:00.773Z,13.30
2018-04-19T22:58:28.380Z,13.30
2018-04-19T23:00:55.994Z,13.20
2018-04-19T23:03:23.595Z,13.20
2018-04-19T23:05:51.195Z,13.10
2018-04-19T23:08:18.816Z,13.10
2018-04-19T23:10:46.406Z,13.10
2018-04-19T23:13:14.032Z,13.00
2018-04-19T23:15:41.627Z,13.00
2018-04-19T23:18:09.244Z,12.90
2018-04-19T23:20:36.835Z,12.90
2018-04-19T23:23:04.438Z,12.90
2018-04-19T23:25:32.039Z,12.90
2018-04-19T23:27:59.726Z,12.80
2018-04-19T23:30:27.262Z,12.80
2018-04-19T23:32:54.847Z,12.80
2018-04-19T23:35:22.455Z,12.70
2018-04-19T23:37:50.054Z,12.80
2018-04-19T23:40:17.670Z,12.70
2018-04-19T23:42:45.266Z,12.70
2018-04-19T23:45:12.899Z,12.60
2018-04-19T23:47:40.480Z,12.60
2018-04-19T23:50:08.080Z,12.50
2018-04-19T23:52:35.670Z,12.50
2018-04-19T23:55:03.273Z,12.50
2018-04-19T23:57:30.879Z,12.40
2018-04-19T23:59:58.475Z,12.40
